createdAt,value
2019-03-18T00:02:24.263Z,10.20
2019-03-18T00:05:28.137Z,9.63
2019-03-18T00:08:31.970Z,6.70
2019-03-18T00:11:35.886Z,5.03
2019-03-18T00:14:39.883Z,4.57
2019-03-18T00:17:43.726Z,4.47
2019-03-18T00:20:47.849Z,3.87
2019-03-18T00:23:51.676Z,4.10
2019-03-18T00:26:55.573Z,4.27
2019-03-18T00:29:59.492Z,6.00
2019-03-18T00:33:03.422Z,6.50
2019-03-18T00:36:07.369Z,6.03
2019-03-18T00:39:11.244Z,3.70
2019-03-18T00:42:15.142Z,3.47
2019-03-18T00:45:19.032Z,3.63
2019-03-18T00:48:22.884Z,3.47
2019-03-18T00:51:26.771Z,4.87
2019-03-18T00:54:30.631Z,3.70
2019-03-18T00:57:34.483Z,3.67
2019-03-18T01:00:38.420Z,3.30
2019-03-18T01:03:42.300Z,2.77
2019-03-18T01:06:46.131Z,3.60
2019-03-18T01:09:50.026Z,4.37
2019-03-18T01:12:53.895Z,5.03
2019-03-18T01:15:57.724Z,3.23
2019-03-18T01:19:01.581Z,3.20
2019-03-18T01:22:05.406Z,3.00
2019-03-18T01:25:11.149Z,4.27
2019-03-18T01:28:15.098Z,3.60
2019-03-18T01:31:18.978Z,3.57
2019-03-18T01:34:22.842Z,3.90
2019-03-18T01:37:26.661Z,4.27
2019-03-18T01:40:30.561Z,4.57
2019-03-18T01:43:34.392Z,5.50
2019-03-18T01:46:38.294Z,5.97
2019-03-18T01:49:42.119Z,7.50
2019-03-18T01:52:46.093Z,9.07
2019-03-18T01:55:49.931Z,8.93
2019-03-18T01:58:53.819Z,9.83
2019-03-18T02:01:57.751Z,10.07
2019-03-18T02:05:01.655Z,9.00
2019-03-18T02:08:05.591Z,9.07
2019-03-18T02:11:09.541Z,8.77
2019-03-18T02:14:13.422Z,8.67
2019-03-18T02:17:17.265Z,7.03
2019-03-18T02:20:21.137Z,4.83
2019-03-18T02:23:25.200Z,4.50
2019-03-18T02:26:29.087Z,3.23
2019-03-18T02:29:32.941Z,4.10
2019-03-18T02:32:36.804Z,3.93
2019-03-18T02:35:40.693Z,4.23
2019-03-18T02:38:44.571Z,4.90
2019-03-18T02:41:48.413Z,5.60
2019-03-18T02:44:52.281Z,6.20
2019-03-18T02:47:56.181Z,6.50
2019-03-18T02:51:00.206Z,6.13
2019-03-18T02:54:04.127Z,7.70
2019-03-18T02:57:07.986Z,6.53
2019-03-18T03:00:16.404Z,6.10
2019-03-18T03:03:20.256Z,6.70
2019-03-18T03:06:24.102Z,8.50
2019-03-18T03:09:27.981Z,6.70
2019-03-18T03:12:31.877Z,5.30
2019-03-18T03:15:35.731Z,5.07
2019-03-18T03:18:39.610Z,4.20
2019-03-18T03:21:43.505Z,5.00
2019-03-18T03:24:47.386Z,5.47
2019-03-18T03:27:51.231Z,8.10
2019-03-18T03:30:55.167Z,10.10
2019-03-18T03:33:59.007Z,10.07
2019-03-18T03:37:02.839Z,9.60
2019-03-18T03:40:11.006Z,8.40
2019-03-18T03:43:14.840Z,7.43
2019-03-18T03:46:18.804Z,8.80
2019-03-18T03:49:22.651Z,8.37
2019-03-18T03:52:26.894Z,7.20
2019-03-18T03:55:30.841Z,7.27
2019-03-18T03:58:34.726Z,8.20
2019-03-18T04:01:38.554Z,7.33
2019-03-18T04:04:42.431Z,6.87
2019-03-18T04:07:46.331Z,6.83
2019-03-18T04:10:50.171Z,6.07
2019-03-18T04:13:54.046Z,6.30
2019-03-18T04:17:02.440Z,6.97
2019-03-18T04:20:03.854Z,6.37
2019-03-18T04:23:07.683Z,7.10
2019-03-18T04:26:11.564Z,7.23
2019-03-18T04:29:15.480Z,7.00
2019-03-18T04:32:19.320Z,7.07
2019-03-18T04:35:23.231Z,6.57
2019-03-18T04:38:27.174Z,6.47
2019-03-18T04:41:31.056Z,6.90
2019-03-18T04:44:35.052Z,6.90
2019-03-18T04:47:38.925Z,6.80
2019-03-18T04:50:42.740Z,6.70
2019-03-18T04:53:46.630Z,6.63
2019-03-18T04:56:50.521Z,6.93
2019-03-18T04:59:54.392Z,6.63
2019-03-18T05:02:58.232Z,7.63
2019-03-18T05:06:02.161Z,7.60
2019-03-18T05:09:06.821Z,7.80
2019-03-18T05:12:10.706Z,7.33
2019-03-18T05:15:14.551Z,7.43
2019-03-18T05:18:18.424Z,7.80
2019-03-18T05:21:22.243Z,6.80
2019-03-18T05:24:26.154Z,6.80
2019-03-18T05:27:29.971Z,6.60
2019-03-18T05:30:33.898Z,5.67
2019-03-18T05:33:38.691Z,6.07
2019-03-18T05:36:42.573Z,6.17
2019-03-18T05:39:46.400Z,6.03
2019-03-18T05:42:50.303Z,5.97
2019-03-18T05:45:54.156Z,6.33
2019-03-18T05:48:58.744Z,6.13
2019-03-18T05:52:02.617Z,7.67
2019-03-18T05:55:07.598Z,7.43
2019-03-18T05:58:11.437Z,7.73
2019-03-18T06:01:15.310Z,8.50
2019-03-18T06:04:19.151Z,8.20
2019-03-18T06:07:23.537Z,8.13
2019-03-18T06:10:27.408Z,8.33
2019-03-18T06:13:31.296Z,8.70
2019-03-18T06:16:35.112Z,9.40
2019-03-18T06:19:38.992Z,9.07
2019-03-18T06:22:42.854Z,9.00
2019-03-18T06:25:46.806Z,9.33
2019-03-18T06:28:50.654Z,9.13
2019-03-18T06:31:54.542Z,8.50
2019-03-18T06:34:58.392Z,8.73
2019-03-18T06:38:02.284Z,9.00
2019-03-18T06:41:06.143Z,8.80
2019-03-18T06:44:10.070Z,9.00
2019-03-18T06:47:13.926Z,8.40
2019-03-18T06:50:17.861Z,8.57
2019-03-18T06:53:21.682Z,8.13
2019-03-18T06:56:25.592Z,7.77
2019-03-18T06:59:29.428Z,8.17
2019-03-18T07:02:33.306Z,8.23
2019-03-18T07:05:37.121Z,7.60
2019-03-18T07:08:41.026Z,7.77
2019-03-18T07:11:44.844Z,8.10
2019-03-18T07:14:48.721Z,7.73
2019-03-18T07:17:52.570Z,7.77
2019-03-18T07:20:56.476Z,7.60
2019-03-18T07:24:00.331Z,7.20
2019-03-18T07:27:04.195Z,7.67
2019-03-18T07:30:10.395Z,7.13
2019-03-18T07:33:14.293Z,6.60
2019-03-18T07:36:18.089Z,6.87
2019-03-18T07:39:22.014Z,6.30
2019-03-18T07:42:26.055Z,6.63
2019-03-18T07:45:29.923Z,6.30
2019-03-18T07:48:33.749Z,6.53
2019-03-18T07:51:37.648Z,5.57
2019-03-18T07:54:41.470Z,4.30
2019-03-18T07:57:45.336Z,4.87
2019-03-18T08:00:49.315Z,4.83
2019-03-18T08:03:53.196Z,4.63
2019-03-18T08:06:57.106Z,4.47
2019-03-18T08:10:00.918Z,4.70
2019-03-18T08:13:04.782Z,4.10
2019-03-18T08:16:08.623Z,4.10
2019-03-18T08:19:12.505Z,3.70
2019-03-18T08:22:16.425Z,3.80
2019-03-18T08:25:20.261Z,4.30
2019-03-18T08:28:24.116Z,4.23
2019-03-18T08:31:28.044Z,3.93
2019-03-18T08:34:31.917Z,4.13
2019-03-18T08:37:35.809Z,4.10
2019-03-18T08:40:39.672Z,4.40
2019-03-18T08:43:43.548Z,4.30
2019-03-18T08:46:47.453Z,4.00
2019-03-18T08:49:51.292Z,4.23
2019-03-18T08:52:55.208Z,3.90
2019-03-18T08:55:59.049Z,3.97
2019-03-18T08:59:02.903Z,3.93
2019-03-18T09:02:06.861Z,3.70
2019-03-18T09:05:10.762Z,3.50
2019-03-18T09:08:14.680Z,3.70
2019-03-18T09:11:18.496Z,3.73
2019-03-18T09:14:22.375Z,3.60
2019-03-18T09:17:29.147Z,4.10
2019-03-18T09:20:32.960Z,4.10
2019-03-18T09:23:36.902Z,4.13
2019-03-18T09:26:40.820Z,4.23
2019-03-18T09:29:44.883Z,3.93
2019-03-18T09:32:48.761Z,4.00
2019-03-18T09:35:52.582Z,4.23
2019-03-18T09:38:56.469Z,4.00
2019-03-18T09:42:00.642Z,3.80
2019-03-18T09:45:09.975Z,3.70
2019-03-18T09:48:13.821Z,3.53
2019-03-18T09:51:17.708Z,4.13
2019-03-18T09:54:21.545Z,3.97
2019-03-18T09:57:26.635Z,4.00
2019-03-18T10:00:30.858Z,4.30
2019-03-18T10:03:34.749Z,4.50
2019-03-18T10:06:38.564Z,4.60
2019-03-18T10:09:42.476Z,3.90
2019-03-18T10:12:46.327Z,4.60
2019-03-18T10:15:50.191Z,5.00
2019-03-18T10:18:54.042Z,4.23
2019-03-18T10:21:57.973Z,4.30
2019-03-18T10:25:04.126Z,4.23
2019-03-18T10:28:07.283Z,4.70
2019-03-18T10:31:11.153Z,4.50
2019-03-18T10:34:15.027Z,4.13
2019-03-18T10:37:19.746Z,4.30
2019-03-18T10:40:23.647Z,4.50
2019-03-18T10:43:27.503Z,4.67
2019-03-18T10:46:31.396Z,4.57
2019-03-18T10:49:45.681Z,5.30
2019-03-18T10:52:40.748Z,5.10
2019-03-18T10:55:44.550Z,5.27
2019-03-18T10:58:48.443Z,5.30
2019-03-18T11:01:52.311Z,5.37
2019-03-18T11:04:56.177Z,5.80
2019-03-18T11:08:00.053Z,5.83
2019-03-18T11:11:03.961Z,5.90
2019-03-18T11:14:07.816Z,5.90
2019-03-18T11:17:11.701Z,6.20
2019-03-18T11:20:16.487Z,6.13
2019-03-18T11:23:20.374Z,6.90
2019-03-18T11:26:24.272Z,7.00
2019-03-18T11:29:28.471Z,6.80
2019-03-18T11:32:32.387Z,7.50
2019-03-18T11:35:36.233Z,6.93
2019-03-18T11:38:40.080Z,6.83
2019-03-18T11:41:43.940Z,7.80
2019-03-18T11:44:47.841Z,7.67
2019-03-18T11:47:51.708Z,7.43
2019-03-18T11:50:55.649Z,7.77
2019-03-18T11:53:59.562Z,7.40
2019-03-18T11:57:03.383Z,7.57
2019-03-18T12:00:10.487Z,8.20
2019-03-18T12:03:14.346Z,7.50
2019-03-18T12:06:18.454Z,8.40
2019-03-18T12:09:22.346Z,7.63
2019-03-18T12:12:29.160Z,7.73
2019-03-18T12:15:33.018Z,8.60
2019-03-18T12:18:36.904Z,8.13
2019-03-18T12:21:40.784Z,8.77
2019-03-18T12:24:44.740Z,8.60
2019-03-18T12:27:48.591Z,6.83
2019-03-18T12:30:52.480Z,6.27
2019-03-18T12:33:57.432Z,6.47
2019-03-18T12:37:02.115Z,5.50
2019-03-18T12:40:13.610Z,5.03
2019-03-18T12:43:17.493Z,5.13
2019-03-18T12:46:21.420Z,5.70
2019-03-18T12:49:25.272Z,5.87
2019-03-18T12:52:29.152Z,5.77
2019-03-18T12:55:33.323Z,5.30
2019-03-18T12:58:37.321Z,5.00
2019-03-18T13:01:41.200Z,4.77
2019-03-18T13:04:45.076Z,5.40
2019-03-18T13:07:48.988Z,5.27
2019-03-18T13:10:52.862Z,6.97
2019-03-18T13:13:56.747Z,9.30
2019-03-18T13:17:00.859Z,5.20
2019-03-18T13:20:08.013Z,5.67
2019-03-18T13:23:11.963Z,5.20
2019-03-18T13:26:15.819Z,5.23
2019-03-18T13:29:19.716Z,5.10
2019-03-18T13:32:24.108Z,4.83
2019-03-18T13:35:28.124Z,5.00
2019-03-18T13:38:32.070Z,4.80
2019-03-18T13:41:36.053Z,5.00
2019-03-18T13:44:39.993Z,5.33
2019-03-18T13:47:43.890Z,4.97
2019-03-18T13:50:47.866Z,5.23
2019-03-18T13:53:51.820Z,5.20
2019-03-18T13:56:55.684Z,5.17
2019-03-18T13:59:59.688Z,4.97
2019-03-18T14:03:03.505Z,5.80
2019-03-18T14:06:07.473Z,6.10
2019-03-18T14:09:11.310Z,6.67
2019-03-18T14:12:15.186Z,6.13
2019-03-18T14:15:20.269Z,6.27
2019-03-18T14:18:24.151Z,5.70
2019-03-18T14:21:33.198Z,5.57
2019-03-18T14:24:33.655Z,5.47
2019-03-18T14:27:37.522Z,5.43
2019-03-18T14:30:41.438Z,5.40
2019-03-18T14:33:45.288Z,5.10
2019-03-18T14:36:49.155Z,4.80
2019-03-18T14:39:52.981Z,4.70
2019-03-18T14:42:56.897Z,6.43
2019-03-18T14:46:00.877Z,6.20
2019-03-18T14:49:04.816Z,5.37
2019-03-18T14:52:08.696Z,6.57
2019-03-18T14:55:14.937Z,5.20
2019-03-18T14:58:18.848Z,5.33
2019-03-18T15:01:22.794Z,4.57
2019-03-18T15:04:26.683Z,4.97
2019-03-18T15:07:30.639Z,5.23
2019-03-18T15:10:34.478Z,5.17
2019-03-18T15:13:38.391Z,5.07
2019-03-18T15:16:42.234Z,5.43
2019-03-18T15:19:46.138Z,5.67
2019-03-18T15:22:50.281Z,6.13
2019-03-18T15:25:54.194Z,6.30
2019-03-18T15:28:58.418Z,6.30
2019-03-18T15:32:02.338Z,5.70
2019-03-18T15:35:07.654Z,5.23
2019-03-18T15:38:11.563Z,6.20
2019-03-18T15:41:15.453Z,7.00
2019-03-18T15:44:19.345Z,6.80
2019-03-18T15:47:23.880Z,5.53
2019-03-18T15:50:28.208Z,6.33
2019-03-18T15:53:32.107Z,5.97
2019-03-18T15:56:35.978Z,6.30
2019-03-18T15:59:40.757Z,6.20
2019-03-18T16:02:44.829Z,6.53
2019-03-18T16:05:48.679Z,5.83
2019-03-18T16:08:52.675Z,6.90
2019-03-18T16:11:56.513Z,6.30
2019-03-18T16:15:00.431Z,6.50
2019-03-18T16:18:04.379Z,6.90
2019-03-18T16:21:08.238Z,8.57
2019-03-18T16:24:13.647Z,14.67
2019-03-18T16:27:17.533Z,8.30
2019-03-18T16:30:22.373Z,10.50
2019-03-18T16:33:26.264Z,6.83
2019-03-18T16:36:30.329Z,6.97
2019-03-18T16:39:34.168Z,19.83
2019-03-18T16:42:38.053Z,10.43
2019-03-18T16:45:42.045Z,11.00
2019-03-18T16:48:45.913Z,10.47
2019-03-18T16:51:49.813Z,9.73
2019-03-18T16:54:53.778Z,9.73
2019-03-18T16:57:57.835Z,10.50
2019-03-18T17:01:01.664Z,9.83
2019-03-18T17:04:05.653Z,10.37
2019-03-18T17:07:09.587Z,12.37
2019-03-18T17:10:14.906Z,11.93
2019-03-18T17:13:18.856Z,11.83
2019-03-18T17:16:22.809Z,11.37
2019-03-18T17:19:26.708Z,11.60
2019-03-18T17:22:30.553Z,10.27
2019-03-18T17:25:34.961Z,10.80
2019-03-18T17:28:38.875Z,10.83
2019-03-18T17:31:42.715Z,12.27
2019-03-18T17:34:46.599Z,11.50
2019-03-18T17:37:50.473Z,16.60
2019-03-18T17:40:54.376Z,17.67
2019-03-18T17:43:58.289Z,15.60
2019-03-18T17:47:02.123Z,15.70
2019-03-18T17:50:08.952Z,17.73
2019-03-18T17:53:14.237Z,17.63
2019-03-18T17:56:29.639Z,15.97
2019-03-18T17:59:23.784Z,16.33
2019-03-18T18:02:29.124Z,16.90
2019-03-18T18:05:33.012Z,17.03
2019-03-18T18:08:36.897Z,15.67
2019-03-18T18:11:43.067Z,15.10
2019-03-18T18:14:46.270Z,12.47
2019-03-18T18:17:50.309Z,12.47
2019-03-18T18:20:54.172Z,12.60
2019-03-18T18:23:58.037Z,11.50
2019-03-18T18:27:01.949Z,11.77
2019-03-18T18:30:11.494Z,11.90
2019-03-18T18:33:16.932Z,11.87
2019-03-18T18:36:20.847Z,12.67
2019-03-18T18:39:24.804Z,12.77
2019-03-18T18:42:31.189Z,13.00
2019-03-18T18:45:35.192Z,12.20
2019-03-18T18:48:39.081Z,12.13
2019-03-18T18:51:42.954Z,11.73
2019-03-18T18:54:46.981Z,13.60
2019-03-18T18:57:50.991Z,12.90
2019-03-18T19:00:54.899Z,13.33
2019-03-18T19:03:59.003Z,13.00
2019-03-18T19:07:02.879Z,14.37
2019-03-18T19:10:09.512Z,14.23
2019-03-18T19:13:17.612Z,17.07
2019-03-18T19:16:20.859Z,18.53
2019-03-18T19:19:24.763Z,17.03
2019-03-18T19:22:28.663Z,17.23
2019-03-18T19:25:32.494Z,17.43
2019-03-18T19:28:36.747Z,17.97
2019-03-18T19:31:40.655Z,17.83
2019-03-18T19:34:44.685Z,17.20
2019-03-18T19:37:48.533Z,20.13
2019-03-18T19:40:52.445Z,22.33
2019-03-18T19:43:56.307Z,22.33
2019-03-18T19:47:00.203Z,23.07
2019-03-18T19:50:05.172Z,23.03
2019-03-18T19:53:12.328Z,24.90
2019-03-18T19:56:16.314Z,27.03
2019-03-18T19:59:22.609Z,29.70
2019-03-18T20:02:26.711Z,28.20
2019-03-18T20:05:30.629Z,25.13
2019-03-18T20:08:34.456Z,27.37
2019-03-18T20:11:38.592Z,26.57
2019-03-18T20:14:42.480Z,26.57
2019-03-18T20:17:46.503Z,27.03
2019-03-18T20:20:50.611Z,26.47
2019-03-18T20:24:00.674Z,26.23
2019-03-18T20:27:00.847Z,25.93
2019-03-18T20:30:08.769Z,24.73
2019-03-18T20:33:12.594Z,25.87
2019-03-18T20:36:16.527Z,25.97
2019-03-18T20:39:20.357Z,25.33
2019-03-18T20:42:24.739Z,24.03
2019-03-18T20:45:28.594Z,24.83
2019-03-18T20:48:32.517Z,21.83
2019-03-18T20:51:36.368Z,21.17
2019-03-18T20:54:41.596Z,20.60
2019-03-18T20:57:45.785Z,21.80
2019-03-18T21:00:49.779Z,20.30
2019-03-18T21:03:53.612Z,18.97
2019-03-18T21:06:59.676Z,20.17
2019-03-18T21:10:03.484Z,19.50
2019-03-18T21:13:07.463Z,19.97
2019-03-18T21:16:11.392Z,20.63
2019-03-18T21:19:16.183Z,21.07
2019-03-18T21:22:20.153Z,22.03
2019-03-18T21:25:24.169Z,21.77
2019-03-18T21:28:27.981Z,23.33
2019-03-18T21:31:31.860Z,23.60
2019-03-18T21:34:35.667Z,20.80
2019-03-18T21:37:39.634Z,22.50
2019-03-18T21:40:43.595Z,23.33
2019-03-18T21:43:47.513Z,21.17
2019-03-18T21:46:51.343Z,19.73
2019-03-18T21:49:55.263Z,22.27
2019-03-18T21:52:59.136Z,19.47
2019-03-18T21:56:03.037Z,19.17
2019-03-18T21:59:06.843Z,19.60
2019-03-18T22:02:10.738Z,20.77
2019-03-18T22:05:15.093Z,21.47
2019-03-18T22:08:18.987Z,19.67
2019-03-18T22:11:22.851Z,17.57
2019-03-18T22:14:26.753Z,17.57
2019-03-18T22:17:30.629Z,18.07
2019-03-18T22:20:34.518Z,18.37
2019-03-18T22:23:38.362Z,15.67
2019-03-18T22:26:42.238Z,13.83
2019-03-18T22:29:46.068Z,14.23
2019-03-18T22:32:49.979Z,14.77
2019-03-18T22:35:53.837Z,16.13
2019-03-18T22:38:57.755Z,15.20
2019-03-18T22:42:01.801Z,16.73
2019-03-18T22:45:08.749Z,16.27
2019-03-18T22:48:12.565Z,15.53
2019-03-18T22:51:16.453Z,15.87
2019-03-18T22:54:20.304Z,15.63
2019-03-18T22:57:24.687Z,16.07
2019-03-18T23:00:33.233Z,15.33
2019-03-18T23:03:37.159Z,16.13
2019-03-18T23:06:40.998Z,15.97
2019-03-18T23:09:45.281Z,15.23
2019-03-18T23:12:49.138Z,15.47
2019-03-18T23:15:53.069Z,15.83
2019-03-18T23:18:56.920Z,15.10
2019-03-18T23:22:00.812Z,15.43
2019-03-18T23:25:07.462Z,15.97
2019-03-18T23:28:12.016Z,15.03
2019-03-18T23:31:15.866Z,14.60
2019-03-18T23:34:19.869Z,13.03
2019-03-18T23:37:24.377Z,13.00
2019-03-18T23:40:28.264Z,11.83
2019-03-18T23:43:32.117Z,12.60
2019-03-18T23:46:36.038Z,12.33
2019-03-18T23:49:39.873Z,11.90
2019-03-18T23:52:43.780Z,12.47
2019-03-18T23:55:47.598Z,12.10
2019-03-18T23:58:51.503Z,11.67
